createdAt,value
2022-11-12T00:01:50.612Z,21.03
2022-11-12T00:04:36.800Z,19.50
2022-11-12T00:07:22.713Z,18.27
2022-11-12T00:10:08.843Z,20.70
2022-11-12T00:12:55.216Z,24.00
2022-11-12T00:15:41.170Z,18.07
2022-11-12T00:18:27.589Z,21.10
2022-11-12T00:21:13.528Z,21.05
2022-11-12T00:23:59.664Z,22.90
2022-11-12T00:26:45.379Z,22.10
2022-11-12T00:29:31.404Z,21.70
2022-11-12T00:32:17.651Z,19.90
2022-11-12T00:35:06.813Z,19.08
2022-11-12T00:37:55.203Z,19.45
2022-11-12T00:40:42.244Z,21.92
2022-11-12T00:43:28.628Z,19.13
2022-11-12T00:46:14.500Z,23.08
2022-11-12T00:49:00.554Z,21.02
2022-11-12T00:51:46.272Z,20.25
2022-11-12T00:54:32.080Z,20.37
2022-11-12T00:57:17.939Z,22.00
2022-11-12T01:00:06.095Z,20.55
2022-11-12T01:02:52.231Z,20.73
2022-11-12T01:05:38.522Z,21.50
2022-11-12T01:08:25.152Z,22.67
2022-11-12T01:11:23.574Z,24.80
2022-11-12T01:14:10.051Z,22.60
2022-11-12T01:16:56.089Z,25.58
2022-11-12T01:19:46.234Z,25.02
2022-11-12T01:22:32.214Z,25.08
2022-11-12T01:25:18.235Z,24.67
2022-11-12T01:28:04.568Z,25.20
2022-11-12T01:30:50.621Z,27.55
2022-11-12T01:33:36.420Z,25.55
2022-11-12T01:36:23.232Z,25.95
2022-11-12T01:39:09.553Z,23.53
2022-11-12T01:41:55.711Z,25.20
2022-11-12T01:44:45.125Z,23.52
2022-11-12T01:47:33.247Z,24.30
2022-11-12T01:50:26.158Z,22.23
2022-11-12T01:53:13.340Z,25.73
2022-11-12T01:56:00.269Z,22.58
2022-11-12T01:58:47.515Z,23.77
2022-11-12T02:01:35.064Z,24.05
2022-11-12T02:04:21.227Z,24.83
2022-11-12T02:07:08.193Z,21.67
2022-11-12T02:09:54.383Z,22.98
2022-11-12T02:12:59.346Z,19.35
2022-11-12T02:15:45.606Z,20.73
2022-11-12T02:18:31.587Z,21.20
2022-11-12T02:21:22.069Z,20.93
2022-11-12T02:24:13.771Z,20.60
2022-11-12T02:26:59.999Z,25.30
2022-11-12T02:29:48.585Z,24.33
2022-11-12T02:32:34.353Z,23.58
2022-11-12T02:35:20.051Z,27.20
2022-11-12T02:38:06.646Z,25.35
2022-11-12T02:40:52.972Z,25.42
2022-11-12T02:43:39.507Z,26.83
2022-11-12T02:46:25.557Z,24.58
2022-11-12T02:49:11.515Z,37.87
2022-11-12T02:51:57.399Z,26.48
2022-11-12T02:54:43.484Z,24.02
2022-11-12T02:57:30.351Z,21.45
2022-11-12T03:00:16.669Z,26.25
2022-11-12T03:03:02.851Z,24.30
2022-11-12T03:06:00.193Z,19.83
2022-11-12T03:08:45.926Z,24.77
2022-11-12T03:11:32.158Z,25.92
2022-11-12T03:14:18.679Z,25.25
2022-11-12T03:17:04.396Z,24.83
2022-11-12T03:19:50.679Z,23.62
2022-11-12T03:22:37.879Z,21.55
2022-11-12T03:25:24.480Z,21.10
2022-11-12T03:28:12.627Z,22.37
2022-11-12T03:30:59.911Z,20.47
2022-11-12T03:33:45.984Z,21.62
2022-11-12T03:36:32.103Z,25.40
2022-11-12T03:39:17.972Z,22.08
2022-11-12T03:42:04.249Z,23.52
2022-11-12T03:44:50.358Z,22.23
2022-11-12T03:47:36.594Z,23.08
2022-11-12T03:50:24.989Z,18.05
2022-11-12T03:53:10.851Z,16.00
2022-11-12T03:55:56.732Z,20.55
2022-11-12T03:58:42.485Z,21.20
2022-11-12T04:01:28.267Z,20.10
2022-11-12T04:04:14.172Z,20.42
2022-11-12T04:07:18.149Z,18.83
2022-11-12T04:10:04.944Z,15.32
2022-11-12T04:13:09.064Z,18.50
2022-11-12T04:16:30.532Z,17.00
2022-11-12T04:19:34.915Z,18.08
2022-11-12T04:22:21.355Z,15.00
2022-11-12T04:25:26.227Z,16.90
2022-11-12T04:28:12.396Z,17.43
2022-11-12T04:30:58.478Z,19.62
2022-11-12T04:33:44.232Z,18.33
2022-11-12T04:36:30.069Z,15.20
2022-11-12T04:39:15.641Z,18.42
2022-11-12T04:42:20.265Z,17.63
2022-11-12T04:45:08.939Z,19.40
2022-11-12T04:47:54.548Z,18.27
2022-11-12T04:50:41.633Z,15.02
2022-11-12T04:53:28.246Z,17.02
2022-11-12T04:56:13.922Z,16.80
2022-11-12T04:58:59.712Z,16.23
2022-11-12T05:01:45.779Z,15.25
2022-11-12T05:04:31.542Z,15.35
2022-11-12T05:07:18.351Z,14.10
2022-11-12T05:13:06.310Z,12.68
2022-11-12T05:15:52.164Z,12.55
2022-11-12T05:18:38.152Z,13.23
2022-11-12T05:21:43.723Z,12.88
2022-11-12T05:24:41.604Z,11.87
2022-11-12T05:27:28.326Z,12.55
2022-11-12T05:30:14.474Z,14.05
2022-11-12T05:33:00.295Z,13.40
2022-11-12T05:35:46.174Z,12.82
2022-11-12T05:38:32.127Z,12.23
2022-11-12T05:41:20.236Z,11.20
2022-11-12T05:44:06.698Z,13.07
2022-11-12T05:46:53.036Z,13.88
2022-11-12T05:49:38.929Z,15.43
2022-11-12T05:52:24.907Z,13.03
2022-11-12T05:55:10.805Z,17.83
2022-11-12T05:57:56.636Z,13.45
2022-11-12T06:00:42.675Z,13.50
2022-11-12T06:03:28.676Z,13.60
2022-11-12T06:06:14.301Z,14.47
2022-11-12T06:09:02.467Z,14.27
2022-11-12T06:11:48.272Z,15.38
2022-11-12T06:14:34.140Z,10.65
2022-11-12T06:17:26.228Z,10.43
2022-11-12T06:20:13.991Z,11.30
2022-11-12T06:22:59.855Z,12.57
2022-11-12T06:25:47.060Z,10.30
2022-11-12T06:28:35.529Z,12.93
2022-11-12T06:31:22.016Z,8.63
2022-11-12T06:34:08.263Z,10.87
2022-11-12T06:36:54.306Z,11.80
2022-11-12T06:42:46.693Z,10.23
2022-11-12T06:45:34.815Z,8.35
2022-11-12T06:48:24.619Z,8.67
2022-11-12T06:51:18.483Z,14.07
2022-11-12T06:54:09.480Z,16.55
2022-11-12T06:56:58.763Z,19.30
2022-11-12T06:59:55.618Z,18.15
2022-11-12T07:02:46.410Z,18.37
2022-11-12T07:05:41.442Z,18.17
2022-11-12T07:08:33.147Z,19.55
2022-11-12T07:11:32.358Z,20.90
2022-11-12T07:14:21.958Z,18.95
2022-11-12T07:17:11.935Z,22.10
2022-11-12T07:20:04.971Z,17.62
2022-11-12T07:22:56.411Z,22.48
2022-11-12T07:26:06.362Z,19.27
2022-11-12T07:29:07.438Z,24.33
2022-11-12T07:32:00.833Z,28.87
2022-11-12T07:34:53.899Z,27.85
2022-11-12T07:37:45.915Z,29.25
2022-11-12T07:41:08.488Z,28.35
2022-11-12T07:43:58.641Z,32.05
2022-11-12T07:46:51.558Z,30.67
2022-11-12T07:49:45.881Z,31.87
2022-11-12T07:52:40.683Z,29.45
2022-11-12T07:58:39.187Z,29.65
2022-11-12T08:01:40.629Z,31.53
2022-11-12T08:04:35.244Z,27.60
2022-11-12T08:07:28.569Z,31.65
2022-11-12T08:10:21.638Z,35.17
2022-11-12T08:13:14.425Z,28.67
2022-11-12T08:16:03.696Z,30.13
2022-11-12T08:18:53.554Z,31.92
2022-11-12T08:21:42.867Z,35.28
2022-11-12T08:24:32.970Z,30.12
2022-11-12T08:27:23.098Z,31.62
2022-11-12T08:30:17.366Z,30.60
2022-11-12T08:33:07.238Z,27.05
2022-11-12T08:35:57.954Z,31.27
2022-11-12T08:38:48.483Z,30.95
2022-11-12T08:41:39.835Z,30.02
2022-11-12T08:44:28.391Z,30.23
2022-11-12T08:47:16.835Z,28.33
2022-11-12T08:50:08.237Z,31.23
2022-11-12T08:53:08.075Z,28.65
2022-11-12T08:55:57.028Z,26.80
2022-11-12T08:58:47.759Z,24.40
2022-11-12T09:01:36.441Z,22.50
2022-11-12T09:04:27.993Z,25.40
2022-11-12T09:07:48.402Z,23.73
2022-11-12T09:10:36.710Z,23.75
2022-11-12T09:13:33.051Z,24.93
2022-11-12T09:16:24.604Z,26.00
2022-11-12T09:19:13.810Z,26.70
2022-11-12T09:22:04.789Z,23.98
2022-11-12T09:24:56.095Z,27.65
2022-11-12T09:27:48.557Z,24.70
2022-11-12T09:30:38.180Z,27.45
2022-11-12T09:33:30.450Z,23.75
2022-11-12T09:36:27.105Z,22.17
2022-11-12T09:39:17.657Z,20.12
2022-11-12T09:42:13.805Z,30.33
2022-11-12T09:45:12.375Z,27.87
2022-11-12T09:48:11.974Z,27.42
2022-11-12T09:51:32.445Z,25.80
2022-11-12T09:54:35.333Z,27.13
2022-11-12T09:57:26.145Z,37.10
2022-11-12T10:00:20.095Z,37.97
2022-11-12T10:03:29.434Z,32.03
2022-11-12T10:06:29.856Z,25.12
2022-11-12T10:09:34.987Z,26.65
2022-11-12T10:12:49.004Z,25.33
2022-11-12T10:16:14.347Z,23.50
2022-11-12T10:19:40.840Z,24.65
2022-11-12T10:23:24.674Z,27.95
2022-11-12T10:26:17.456Z,28.38
2022-11-12T10:29:28.610Z,29.03
2022-11-12T10:32:17.125Z,32.17
2022-11-12T10:35:05.169Z,29.20
2022-11-12T10:38:19.754Z,29.02
2022-11-12T10:41:40.000Z,27.73
2022-11-12T10:44:30.553Z,22.47
2022-11-12T10:47:43.121Z,23.15
2022-11-12T10:50:43.832Z,23.12
2022-11-12T10:53:40.044Z,22.85
2022-11-12T10:56:33.701Z,20.75
2022-11-12T10:59:26.147Z,18.50
2022-11-12T11:02:24.566Z,20.80
2022-11-12T11:05:33.219Z,20.35
2022-11-12T11:08:40.080Z,22.30
2022-11-12T11:11:31.396Z,23.40
2022-11-12T11:14:26.965Z,24.03
2022-11-12T11:17:18.454Z,20.95
2022-11-12T11:20:44.373Z,20.00
2022-11-12T11:24:16.423Z,21.50
2022-11-12T11:27:14.588Z,18.87
2022-11-12T11:30:21.563Z,17.70
2022-11-12T11:33:42.694Z,23.77
2022-11-12T11:37:08.476Z,15.93
2022-11-12T11:40:04.909Z,17.27
2022-11-12T11:43:17.222Z,13.90
2022-11-12T11:46:35.833Z,15.07
2022-11-12T11:49:46.011Z,13.62
2022-11-12T11:52:47.035Z,15.45
2022-11-12T11:56:21.228Z,13.65
2022-11-12T11:59:32.732Z,14.52
2022-11-12T12:02:54.065Z,16.63
2022-11-12T12:05:53.620Z,14.25
2022-11-12T12:08:46.155Z,12.80
2022-11-12T12:11:51.334Z,10.75
2022-11-12T12:15:10.414Z,11.48
2022-11-12T12:18:34.846Z,10.63
2022-11-12T12:21:26.596Z,11.63
2022-11-12T12:24:22.695Z,11.82
2022-11-12T12:27:20.997Z,12.68
2022-11-12T12:30:27.218Z,12.40
2022-11-12T12:33:29.156Z,14.97
2022-11-12T12:36:38.160Z,16.52
2022-11-12T12:39:36.461Z,16.77
2022-11-12T12:42:34.909Z,15.25
2022-11-12T12:45:43.989Z,19.80
2022-11-12T12:48:45.799Z,16.87
2022-11-12T12:51:38.365Z,22.20
2022-11-12T12:54:57.895Z,20.80
2022-11-12T12:57:45.767Z,18.67
2022-11-12T13:00:43.906Z,25.15
2022-11-12T13:03:45.700Z,20.17
2022-11-12T13:06:49.945Z,19.35
2022-11-12T13:09:37.248Z,18.02
2022-11-12T13:13:04.554Z,18.05
2022-11-12T13:16:19.264Z,17.25
2022-11-12T13:19:08.148Z,16.07
2022-11-12T13:22:24.478Z,18.80
2022-11-12T13:25:15.122Z,17.65
2022-11-12T13:28:03.526Z,17.15
2022-11-12T13:30:50.719Z,17.23
2022-11-12T13:33:39.715Z,25.20
2022-11-12T13:36:29.112Z,27.08
2022-11-12T13:39:22.436Z,23.05
2022-11-12T13:42:35.647Z,21.92
2022-11-12T13:45:25.584Z,19.87
2022-11-12T13:48:32.871Z,18.67
2022-11-12T13:51:37.788Z,19.35
2022-11-12T13:54:34.415Z,22.02
2022-11-12T13:57:29.631Z,19.37
2022-11-12T14:00:50.204Z,21.12
2022-11-12T14:03:48.381Z,21.27
2022-11-12T14:06:50.337Z,21.65
2022-11-12T14:09:53.927Z,21.52
2022-11-12T14:13:02.496Z,25.48
2022-11-12T14:16:21.888Z,26.87
2022-11-12T14:20:05.854Z,20.07
2022-11-12T14:22:54.052Z,24.95
2022-11-12T14:25:51.063Z,26.73
2022-11-12T14:28:40.580Z,23.23
2022-11-12T14:31:31.199Z,21.10
2022-11-12T14:34:33.976Z,22.03
2022-11-12T14:37:49.723Z,21.58
2022-11-12T14:40:53.350Z,23.80
2022-11-12T14:44:07.427Z,22.42
2022-11-12T14:47:03.989Z,21.40
2022-11-12T14:49:56.690Z,27.33
2022-11-12T14:52:48.160Z,25.80
2022-11-12T14:55:50.294Z,27.58
2022-11-12T14:58:42.291Z,42.92
2022-11-12T15:02:29.659Z,60.95
2022-11-12T15:05:18.679Z,54.87
2022-11-12T15:08:10.839Z,46.50
2022-11-12T15:11:23.054Z,39.75
2022-11-12T15:14:25.238Z,43.63
2022-11-12T15:17:42.018Z,42.22
2022-11-12T15:20:30.768Z,37.03
2022-11-12T15:23:19.625Z,27.90
2022-11-12T15:26:14.418Z,28.60
2022-11-12T15:29:48.943Z,24.63
2022-11-12T15:32:36.909Z,26.12
2022-11-12T15:35:31.175Z,22.77
2022-11-12T15:38:36.094Z,32.20
2022-11-12T15:41:33.699Z,30.37
2022-11-12T15:44:22.935Z,25.83
2022-11-12T15:47:17.884Z,22.87
2022-11-12T15:50:30.776Z,25.37
2022-11-12T15:53:18.785Z,23.30
2022-11-12T15:56:27.084Z,23.67
2022-11-12T15:59:18.257Z,22.17
2022-11-12T16:02:14.441Z,21.98
2022-11-12T16:05:07.482Z,26.10
2022-11-12T16:07:59.977Z,21.00
2022-11-12T16:10:49.815Z,21.92
2022-11-12T16:13:38.963Z,24.35
2022-11-12T16:16:28.287Z,28.98
2022-11-12T16:19:29.093Z,25.30
2022-11-12T16:22:26.427Z,24.83
2022-11-12T16:25:21.693Z,41.13
2022-11-12T16:28:19.623Z,34.55
2022-11-12T16:31:15.853Z,31.20
2022-11-12T16:34:29.957Z,28.13
2022-11-12T16:37:19.431Z,28.95
2022-11-12T16:40:23.972Z,26.85
2022-11-12T16:43:19.821Z,25.98
2022-11-12T16:46:16.247Z,31.02
2022-11-12T16:49:15.017Z,29.00
2022-11-12T16:52:13.301Z,30.30
2022-11-12T16:55:05.149Z,28.83
2022-11-12T16:58:13.943Z,35.30
2022-11-12T17:01:03.607Z,36.83
2022-11-12T17:04:32.116Z,40.90
2022-11-12T17:07:24.335Z,32.47
2022-11-12T17:10:17.081Z,32.45
2022-11-12T17:13:07.450Z,33.03
2022-11-12T17:15:58.751Z,27.05
2022-11-12T17:18:48.178Z,22.60
2022-11-12T17:21:38.946Z,18.92
2022-11-12T17:24:27.316Z,17.48
2022-11-12T17:27:16.772Z,24.65
2022-11-12T17:30:07.193Z,23.27
2022-11-12T17:33:03.791Z,20.13
2022-11-12T17:35:52.579Z,23.33
2022-11-12T17:38:42.257Z,26.30
2022-11-12T17:41:31.942Z,24.85
2022-11-12T17:44:21.196Z,25.75
2022-11-12T17:47:11.321Z,25.30
2022-11-12T17:49:59.843Z,26.17
2022-11-12T17:52:47.889Z,26.25
2022-11-12T17:55:34.348Z,24.27
2022-11-12T17:58:42.630Z,29.52
2022-11-12T18:01:30.815Z,21.20
2022-11-12T18:04:19.312Z,27.00
2022-11-12T18:07:07.189Z,27.62
2022-11-12T18:10:19.406Z,24.30
2022-11-12T18:13:19.357Z,22.77
2022-11-12T18:16:22.764Z,22.50
2022-11-12T18:19:11.989Z,26.87
2022-11-12T18:22:06.627Z,23.73
2022-11-12T18:25:15.177Z,32.83
2022-11-12T18:28:04.140Z,29.12
2022-11-12T18:30:59.392Z,24.87
2022-11-12T18:33:51.556Z,25.17
2022-11-12T18:36:40.259Z,29.52
2022-11-12T18:39:32.051Z,30.10
2022-11-12T18:42:21.218Z,33.67
2022-11-12T18:45:10.479Z,32.23
2022-11-12T18:48:02.052Z,31.37
2022-11-12T18:50:52.704Z,28.10
2022-11-12T18:53:46.286Z,28.08
2022-11-12T18:56:40.234Z,28.17
2022-11-12T18:59:31.775Z,27.73
2022-11-12T19:02:20.112Z,27.25
2022-11-12T19:05:10.200Z,28.62
2022-11-12T19:07:58.018Z,25.17
2022-11-12T19:10:46.741Z,30.40
2022-11-12T19:13:34.718Z,26.33
2022-11-12T19:16:25.384Z,26.48
2022-11-12T19:19:16.451Z,27.42
2022-11-12T19:22:07.759Z,28.98
2022-11-12T19:24:57.055Z,26.17
2022-11-12T19:27:51.062Z,25.97
2022-11-12T19:30:41.360Z,25.23
2022-11-12T19:33:29.700Z,26.23
2022-11-12T19:36:21.580Z,22.20
2022-11-12T19:39:12.043Z,29.48
2022-11-12T19:42:03.671Z,27.47
2022-11-12T19:44:54.638Z,29.10
2022-11-12T19:47:47.456Z,27.77
2022-11-12T19:50:41.018Z,27.08
2022-11-12T19:53:41.854Z,29.63
2022-11-12T19:56:33.882Z,37.13
2022-11-12T19:59:24.786Z,36.30
2022-11-12T20:02:18.891Z,33.75
2022-11-12T20:05:15.003Z,32.20
2022-11-12T20:08:10.911Z,30.27
2022-11-12T20:11:16.249Z,22.57
2022-11-12T20:14:07.416Z,26.77
2022-11-12T20:17:00.334Z,27.42
2022-11-12T20:19:52.028Z,22.30
2022-11-12T20:22:42.689Z,21.98
2022-11-12T20:25:40.052Z,21.73
2022-11-12T20:28:27.503Z,26.95
2022-11-12T20:31:24.729Z,27.92
2022-11-12T20:34:13.891Z,30.92
2022-11-12T20:37:07.284Z,32.10
2022-11-12T20:40:03.489Z,30.00
2022-11-12T20:42:53.999Z,28.00
2022-11-12T20:46:01.184Z,30.98
2022-11-12T20:48:54.137Z,32.35
2022-11-12T20:51:44.309Z,35.67
2022-11-12T20:54:36.506Z,35.87
2022-11-12T20:57:25.618Z,35.10
2022-11-12T21:00:21.388Z,34.75
2022-11-12T21:03:15.627Z,35.28
2022-11-12T21:06:07.030Z,37.20
2022-11-12T21:08:57.821Z,33.03
2022-11-12T21:11:47.148Z,30.35
2022-11-12T21:14:36.363Z,32.53
2022-11-12T21:17:23.382Z,31.30
2022-11-12T21:20:12.194Z,33.22
2022-11-12T21:23:03.361Z,30.63
2022-11-12T21:25:52.046Z,29.98
2022-11-12T21:28:52.938Z,33.45
2022-11-12T21:31:44.239Z,28.25
2022-11-12T21:34:33.227Z,28.73
2022-11-12T21:37:22.986Z,36.93
2022-11-12T21:40:12.799Z,32.35
2022-11-12T21:43:03.590Z,29.73
2022-11-12T21:45:52.415Z,29.52
2022-11-12T21:48:44.595Z,31.58
2022-11-12T21:51:37.258Z,29.33
2022-11-12T21:54:30.170Z,32.60
2022-11-12T21:57:28.160Z,30.58
2022-11-12T22:00:41.140Z,31.98
2022-11-12T22:03:31.220Z,28.42
2022-11-12T22:06:21.559Z,30.53
2022-11-12T22:09:15.499Z,36.30
2022-11-12T22:12:08.913Z,29.10
2022-11-12T22:14:58.895Z,31.10
2022-11-12T22:17:49.468Z,28.58
2022-11-12T22:20:41.035Z,25.50
2022-11-12T22:23:38.705Z,29.67
2022-11-12T22:26:28.225Z,26.40
2022-11-12T22:29:20.450Z,32.58
2022-11-12T22:32:10.779Z,32.22
2022-11-12T22:35:01.752Z,30.57
2022-11-12T22:37:54.870Z,32.92
2022-11-12T22:40:43.036Z,31.55
2022-11-12T22:43:34.412Z,28.92
2022-11-12T22:46:26.315Z,27.10
2022-11-12T22:49:18.864Z,28.90
2022-11-12T22:52:07.472Z,25.85
2022-11-12T22:54:58.522Z,26.65
2022-11-12T22:57:48.940Z,27.13
2022-11-12T23:00:38.409Z,24.80
2022-11-12T23:03:31.785Z,23.77
2022-11-12T23:06:19.372Z,21.75
2022-11-12T23:09:14.907Z,25.62
2022-11-12T23:12:05.339Z,20.80
2022-11-12T23:14:56.031Z,24.52
2022-11-12T23:17:48.046Z,22.20
2022-11-12T23:20:39.341Z,24.92
2022-11-12T23:23:31.314Z,24.50
2022-11-12T23:26:24.948Z,25.92
2022-11-12T23:29:15.007Z,26.83
2022-11-12T23:32:04.611Z,20.27
2022-11-12T23:34:51.975Z,22.23
2022-11-12T23:37:41.524Z,26.58
2022-11-12T23:40:32.718Z,23.17
2022-11-12T23:43:22.053Z,23.67
2022-11-12T23:46:13.184Z,22.33
2022-11-12T23:49:02.097Z,22.48
2022-11-12T23:51:54.741Z,29.52
2022-11-12T23:54:43.190Z,31.55
2022-11-12T23:57:33.823Z,28.85
